createdAt,value
2018-12-08T00:00:32.778Z,2.20
2018-12-08T00:01:34.465Z,2.10
2018-12-08T00:02:35.613Z,2.27
2018-12-08T00:03:36.752Z,1.57
2018-12-08T00:04:37.880Z,1.67
2018-12-08T00:05:39.046Z,2.33
2018-12-08T00:06:40.325Z,1.97
2018-12-08T00:07:41.502Z,2.37
2018-12-08T00:08:42.642Z,1.67
2018-12-08T00:09:43.779Z,1.97
2018-12-08T00:10:45.025Z,2.30
2018-12-08T00:11:46.154Z,1.30
2018-12-08T00:12:47.302Z,1.57
2018-12-08T00:13:48.441Z,1.80
2018-12-08T00:14:49.605Z,2.13
2018-12-08T00:15:50.726Z,2.10
2018-12-08T00:16:51.842Z,1.50
2018-12-08T00:17:53.110Z,2.00
2018-12-08T00:18:54.633Z,1.50
2018-12-08T00:19:55.788Z,2.00
2018-12-08T00:20:56.918Z,2.40
2018-12-08T00:22:04.962Z,2.23
2018-12-08T00:23:06.105Z,1.60
2018-12-08T00:24:07.218Z,2.30
2018-12-08T00:25:08.350Z,2.60
2018-12-08T00:26:11.159Z,1.90
2018-12-08T00:27:12.520Z,1.63
2018-12-08T00:28:13.641Z,1.47
2018-12-08T00:29:14.770Z,1.37
2018-12-08T00:30:28.165Z,1.67
2018-12-08T00:31:40.474Z,1.37
2018-12-08T00:32:41.586Z,1.77
2018-12-08T00:33:42.709Z,1.83
2018-12-08T00:34:43.845Z,1.67
2018-12-08T00:35:44.977Z,1.90
2018-12-08T00:36:46.114Z,1.60
2018-12-08T00:37:47.241Z,1.33
2018-12-08T00:38:48.366Z,2.20
2018-12-08T00:39:49.497Z,1.97
2018-12-08T00:40:50.633Z,1.20
2018-12-08T00:41:51.745Z,1.10
2018-12-08T00:42:52.873Z,1.70
2018-12-08T00:43:54.002Z,1.80
2018-12-08T00:44:55.118Z,1.00
2018-12-08T00:45:56.257Z,1.63
2018-12-08T00:46:57.379Z,1.33
2018-12-08T00:47:58.494Z,1.80
2018-12-08T00:48:59.613Z,2.07
2018-12-08T00:50:00.766Z,1.40
2018-12-08T00:51:01.889Z,1.77
2018-12-08T00:52:03.027Z,1.40
2018-12-08T00:53:04.171Z,1.70
2018-12-08T00:54:06.181Z,1.60
2018-12-08T00:55:07.445Z,1.63
2018-12-08T00:56:08.589Z,2.10
2018-12-08T00:57:09.734Z,1.30
2018-12-08T00:58:10.850Z,2.67
2018-12-08T00:59:11.969Z,2.53
2018-12-08T01:00:13.157Z,2.17
2018-12-08T01:01:14.409Z,3.03
2018-12-08T01:02:15.538Z,1.53
2018-12-08T01:03:16.674Z,1.53
2018-12-08T01:04:17.817Z,1.20
2018-12-08T01:05:18.969Z,1.60
2018-12-08T01:06:27.125Z,1.53
2018-12-08T01:07:28.256Z,1.20
2018-12-08T01:08:29.414Z,1.03
2018-12-08T01:09:30.545Z,1.40
2018-12-08T01:10:31.671Z,1.30
2018-12-08T01:11:32.811Z,1.47
2018-12-08T01:12:33.969Z,1.70
2018-12-08T01:13:35.173Z,1.73
2018-12-08T01:14:36.306Z,2.60
2018-12-08T01:15:37.436Z,1.60
2018-12-08T01:16:38.696Z,1.73
2018-12-08T01:17:39.822Z,1.67
2018-12-08T01:18:40.950Z,1.93
2018-12-08T01:19:42.078Z,1.50
2018-12-08T01:20:43.217Z,1.73
2018-12-08T01:21:44.353Z,1.63
2018-12-08T01:22:45.465Z,1.87
2018-12-08T01:23:46.611Z,1.60
2018-12-08T01:24:47.737Z,2.10
2018-12-08T01:25:48.890Z,2.13
2018-12-08T01:26:50.019Z,1.90
2018-12-08T01:27:51.146Z,1.60
2018-12-08T01:28:52.289Z,1.93
2018-12-08T01:29:53.414Z,1.57
2018-12-08T01:31:01.506Z,2.57
2018-12-08T01:32:02.676Z,2.37
2018-12-08T01:33:03.798Z,1.30
2018-12-08T01:34:04.922Z,1.23
2018-12-08T01:35:06.088Z,1.60
2018-12-08T01:36:07.253Z,1.43
2018-12-08T01:37:08.374Z,1.77
2018-12-08T01:38:09.534Z,2.07
2018-12-08T01:39:10.797Z,1.70
2018-12-08T01:40:11.935Z,1.83
2018-12-08T01:41:13.073Z,1.37
2018-12-08T01:42:21.245Z,1.73
2018-12-08T01:43:22.365Z,1.57
2018-12-08T01:44:23.502Z,1.57
2018-12-08T01:45:24.648Z,2.10
2018-12-08T01:46:25.909Z,2.27
2018-12-08T01:47:27.153Z,1.43
2018-12-08T01:48:28.289Z,1.20
2018-12-08T01:49:29.437Z,1.67
2018-12-08T01:50:30.729Z,1.97
2018-12-08T01:51:31.854Z,1.37
2018-12-08T01:52:32.984Z,1.10
2018-12-08T01:53:34.133Z,2.13
2018-12-08T01:54:35.258Z,1.57
2018-12-08T01:55:36.394Z,0.93
2018-12-08T01:56:37.561Z,1.33
2018-12-08T01:57:38.737Z,1.40
2018-12-08T01:58:39.906Z,1.43
2018-12-08T01:59:41.073Z,1.03
2018-12-08T02:00:42.237Z,1.23
2018-12-08T02:01:43.381Z,1.60
2018-12-08T02:02:44.529Z,1.60
2018-12-08T02:03:45.660Z,1.00
2018-12-08T02:04:46.809Z,1.27
2018-12-08T02:05:47.962Z,1.80
2018-12-08T02:06:49.114Z,1.53
2018-12-08T02:07:50.261Z,2.30
2018-12-08T02:08:51.405Z,0.87
2018-12-08T02:09:52.545Z,1.23
2018-12-08T02:10:53.701Z,1.07
2018-12-08T02:11:54.857Z,1.27
2018-12-08T02:12:56.009Z,1.20
2018-12-08T02:13:57.137Z,1.17
2018-12-08T02:14:58.271Z,1.00
2018-12-08T02:15:59.438Z,1.23
2018-12-08T02:17:00.569Z,1.63
2018-12-08T02:18:01.725Z,1.00
2018-12-08T02:19:02.881Z,1.27
2018-12-08T02:20:04.377Z,1.50
2018-12-08T02:21:05.513Z,1.00
2018-12-08T02:22:06.641Z,1.27
2018-12-08T02:23:07.785Z,1.00
2018-12-08T02:24:08.926Z,1.00
2018-12-08T02:25:10.089Z,1.00
2018-12-08T02:26:11.233Z,1.17
2018-12-08T02:27:12.468Z,1.40
2018-12-08T02:28:13.610Z,1.27
2018-12-08T02:29:21.873Z,0.87
2018-12-08T02:30:23.013Z,2.10
2018-12-08T02:31:24.161Z,0.70
2018-12-08T02:32:25.299Z,1.23
2018-12-08T02:33:26.430Z,0.93
2018-12-08T02:34:27.574Z,1.37
2018-12-08T02:35:28.779Z,1.23
2018-12-08T02:36:29.973Z,0.90
2018-12-08T02:37:31.139Z,0.90
2018-12-08T02:38:32.393Z,1.27
2018-12-08T02:39:33.529Z,0.50
2018-12-08T02:40:34.707Z,1.27
2018-12-08T02:41:35.848Z,0.70
2018-12-08T02:42:37.009Z,0.87
2018-12-08T02:43:38.182Z,0.90
2018-12-08T02:44:39.330Z,0.90
2018-12-08T02:45:40.456Z,0.90
2018-12-08T02:46:41.582Z,1.20
2018-12-08T02:47:42.759Z,1.03
2018-12-08T02:48:43.892Z,0.70
2018-12-08T02:49:45.165Z,1.17
2018-12-08T02:50:46.297Z,0.90
2018-12-08T02:51:47.484Z,0.83
2018-12-08T02:52:48.632Z,0.80
2018-12-08T02:53:49.770Z,1.00
2018-12-08T02:54:50.924Z,0.67
2018-12-08T02:55:52.069Z,0.70
2018-12-08T02:56:53.229Z,0.93
2018-12-08T02:58:01.377Z,0.73
2018-12-08T02:59:02.537Z,0.90
2018-12-08T03:00:05.678Z,0.50
2018-12-08T03:01:06.828Z,0.63
2018-12-08T03:02:08.018Z,0.83
2018-12-08T03:03:09.183Z,0.60
2018-12-08T03:04:10.461Z,0.70
2018-12-08T03:05:11.867Z,0.90
2018-12-08T03:06:20.010Z,0.60
2018-12-08T03:07:21.161Z,0.93
2018-12-08T03:08:22.310Z,0.73
2018-12-08T03:09:23.468Z,0.70
2018-12-08T03:10:24.614Z,0.80
2018-12-08T03:11:25.761Z,0.70
2018-12-08T03:12:26.913Z,0.40
2018-12-08T03:13:28.061Z,1.00
2018-12-08T03:14:29.238Z,0.90
2018-12-08T03:15:30.401Z,1.30
2018-12-08T03:16:31.530Z,0.57
2018-12-08T03:17:32.651Z,0.50
2018-12-08T03:18:33.780Z,0.87
2018-12-08T03:19:34.914Z,0.60
2018-12-08T03:20:36.092Z,0.87
2018-12-08T03:21:37.213Z,0.60
2018-12-08T03:22:38.333Z,0.67
2018-12-08T03:23:39.455Z,1.00
2018-12-08T03:24:40.591Z,0.47
2018-12-08T03:25:41.726Z,0.97
2018-12-08T03:26:42.853Z,0.70
2018-12-08T03:27:43.989Z,0.70
2018-12-08T03:28:45.111Z,0.67
2018-12-08T03:29:46.237Z,0.83
2018-12-08T03:30:47.390Z,0.90
2018-12-08T03:31:48.590Z,0.57
2018-12-08T03:32:49.730Z,0.50
2018-12-08T03:33:50.865Z,1.10
2018-12-08T03:34:51.989Z,0.40
2018-12-08T03:35:53.113Z,0.50
2018-12-08T03:36:54.237Z,0.90
2018-12-08T03:37:55.369Z,0.73
2018-12-08T03:38:56.483Z,0.43
2018-12-08T03:39:57.602Z,0.50
2018-12-08T03:40:58.725Z,0.60
2018-12-08T03:41:59.877Z,0.40
2018-12-08T03:43:00.999Z,0.40
2018-12-08T03:44:02.382Z,0.50
2018-12-08T03:45:04.051Z,0.57
2018-12-08T03:46:05.181Z,0.73
2018-12-08T03:47:06.310Z,0.40
2018-12-08T03:48:07.583Z,0.50
2018-12-08T03:49:08.716Z,0.53
2018-12-08T03:50:10.076Z,0.60
2018-12-08T03:51:11.203Z,0.30
2018-12-08T03:52:12.339Z,0.43
2018-12-08T03:53:13.463Z,0.60
2018-12-08T03:54:14.594Z,0.53
2018-12-08T03:55:15.714Z,0.50
2018-12-08T03:56:16.858Z,0.30
2018-12-08T03:57:17.985Z,0.67
2018-12-08T03:58:19.107Z,0.43
2018-12-08T03:59:20.229Z,0.60
2018-12-08T04:00:21.357Z,0.40
2018-12-08T04:01:22.498Z,0.50
2018-12-08T04:02:23.629Z,1.30
2018-12-08T04:03:24.770Z,0.30
2018-12-08T04:04:25.935Z,0.70
2018-12-08T04:05:27.090Z,0.30
2018-12-08T04:06:28.249Z,0.30
2018-12-08T04:07:29.386Z,0.87
2018-12-08T04:08:30.653Z,0.33
2018-12-08T04:09:31.809Z,0.40
2018-12-08T04:10:32.973Z,1.20
2018-12-08T04:11:34.129Z,0.30
2018-12-08T04:12:35.257Z,1.03
2018-12-08T04:13:36.459Z,0.33
2018-12-08T04:14:37.621Z,0.40
2018-12-08T04:15:38.776Z,0.50
2018-12-08T04:16:39.932Z,0.60
2018-12-08T04:17:41.085Z,0.40
2018-12-08T04:18:42.222Z,0.37
2018-12-08T04:19:43.361Z,0.40
2018-12-08T04:20:51.470Z,0.40
2018-12-08T04:21:52.590Z,0.47
2018-12-08T04:22:53.851Z,0.60
2018-12-08T04:23:54.998Z,0.57
2018-12-08T04:24:56.303Z,0.53
2018-12-08T04:25:57.505Z,0.30
2018-12-08T04:26:58.653Z,0.40
2018-12-08T04:27:59.770Z,0.40
2018-12-08T04:29:00.897Z,0.60
2018-12-08T04:30:02.483Z,0.20
2018-12-08T04:31:03.621Z,0.50
2018-12-08T04:32:04.746Z,0.57
2018-12-08T04:33:05.877Z,0.30
2018-12-08T04:34:07.012Z,0.47
2018-12-08T04:35:08.151Z,0.20
2018-12-08T04:36:09.294Z,0.30
2018-12-08T04:37:10.541Z,0.30
2018-12-08T04:38:11.668Z,0.83
2018-12-08T04:39:12.801Z,0.50
2018-12-08T04:40:13.944Z,0.30
2018-12-08T04:41:15.070Z,0.30
2018-12-08T04:42:16.186Z,0.40
2018-12-08T04:43:17.302Z,0.27
2018-12-08T04:44:18.442Z,0.37
2018-12-08T04:45:19.617Z,0.40
2018-12-08T04:46:20.889Z,0.40
2018-12-08T04:47:22.029Z,0.33
2018-12-08T04:48:23.170Z,0.27
2018-12-08T04:49:24.285Z,0.70
2018-12-08T04:50:25.406Z,0.50
2018-12-08T04:51:26.533Z,0.80
2018-12-08T04:52:27.641Z,0.50
2018-12-08T04:53:28.757Z,0.53
2018-12-08T04:54:29.862Z,0.73
2018-12-08T04:55:30.973Z,0.30
2018-12-08T04:56:32.112Z,0.67
2018-12-08T04:57:33.246Z,0.53
2018-12-08T04:58:34.430Z,0.50
2018-12-08T04:59:35.553Z,0.40
2018-12-08T05:00:36.673Z,0.40
2018-12-08T05:01:37.804Z,0.40
2018-12-08T05:02:38.922Z,0.33
2018-12-08T05:03:40.029Z,0.30
2018-12-08T05:04:41.285Z,0.50
2018-12-08T05:05:49.409Z,1.13
2018-12-08T05:06:50.536Z,0.60
2018-12-08T05:07:51.673Z,0.20
2018-12-08T05:08:52.795Z,0.30
2018-12-08T05:09:53.924Z,0.37
2018-12-08T05:10:55.041Z,0.40
2018-12-08T05:11:56.169Z,1.17
2018-12-08T05:12:57.282Z,0.50
2018-12-08T05:13:58.417Z,0.60
2018-12-08T05:14:59.537Z,0.40
2018-12-08T05:16:00.673Z,0.40
2018-12-08T05:17:01.801Z,0.40
2018-12-08T05:18:03.007Z,0.40
2018-12-08T05:19:04.158Z,0.70
2018-12-08T05:20:12.357Z,0.53
2018-12-08T05:21:13.548Z,0.87
2018-12-08T05:22:14.701Z,0.33
2018-12-08T05:24:23.725Z,0.50
2018-12-08T05:25:24.868Z,0.30
2018-12-08T05:26:26.022Z,0.43
2018-12-08T05:27:27.157Z,0.67
2018-12-08T05:28:28.289Z,0.40
2018-12-08T05:29:29.439Z,1.53
2018-12-08T05:30:30.589Z,3.03
2018-12-08T05:31:31.734Z,0.43
2018-12-08T05:32:32.881Z,0.63
2018-12-08T05:33:34.053Z,0.50
2018-12-08T05:34:35.162Z,0.30
2018-12-08T05:35:36.286Z,0.20
2018-12-08T05:36:37.408Z,0.70
2018-12-08T05:37:38.538Z,0.40
2018-12-08T05:38:39.697Z,0.40
2018-12-08T05:39:40.821Z,0.40
2018-12-08T05:40:41.945Z,0.50
2018-12-08T05:41:43.783Z,0.40
2018-12-08T05:42:44.904Z,0.50
2018-12-08T05:43:46.045Z,0.90
2018-12-08T05:44:47.169Z,1.07
2018-12-08T05:45:48.269Z,0.30
2018-12-08T05:46:49.405Z,0.93
2018-12-08T05:47:50.529Z,0.53
2018-12-08T05:48:51.649Z,0.97
2018-12-08T05:49:52.774Z,1.00
2018-12-08T05:50:53.919Z,0.83
2018-12-08T05:51:55.044Z,0.97
2018-12-08T05:52:56.175Z,0.83
2018-12-08T05:53:57.302Z,0.50
2018-12-08T05:54:58.422Z,0.80
2018-12-08T05:55:59.561Z,0.50
2018-12-08T05:57:00.681Z,0.90
2018-12-08T05:58:01.802Z,0.70
2018-12-08T05:59:03.177Z,1.27
2018-12-08T06:00:05.973Z,0.67
2018-12-08T06:01:07.100Z,1.00
2018-12-08T06:02:08.218Z,0.50
2018-12-08T06:03:09.333Z,1.00
2018-12-08T06:04:10.449Z,0.97
2018-12-08T06:05:11.593Z,1.20
2018-12-08T06:06:12.709Z,0.63
2018-12-08T06:07:13.855Z,1.73
2018-12-08T06:08:14.990Z,0.70
2018-12-08T06:09:16.138Z,0.80
2018-12-08T06:10:17.278Z,0.57
2018-12-08T06:11:18.445Z,1.43
2018-12-08T06:12:19.571Z,1.00
2018-12-08T06:13:20.705Z,0.73
2018-12-08T06:14:21.845Z,1.13
2018-12-08T06:15:22.965Z,0.87
2018-12-08T06:16:24.077Z,0.50
2018-12-08T06:17:25.878Z,0.93
2018-12-08T06:18:26.998Z,0.70
2018-12-08T06:19:28.109Z,1.00
2018-12-08T06:20:29.234Z,0.90
2018-12-08T06:21:35.228Z,0.87
2018-12-08T06:22:36.373Z,1.03
2018-12-08T06:23:37.489Z,2.13
2018-12-08T06:24:38.614Z,1.03
2018-12-08T06:25:39.745Z,0.80
2018-12-08T06:26:43.114Z,0.73
2018-12-08T06:27:48.275Z,1.37
2018-12-08T06:28:49.405Z,1.17
2018-12-08T06:29:50.517Z,1.67
2018-12-08T06:30:51.633Z,1.13
2018-12-08T06:31:52.778Z,1.00
2018-12-08T06:32:53.897Z,0.90
2018-12-08T06:33:55.037Z,0.73
2018-12-08T06:34:56.185Z,0.80
2018-12-08T06:35:57.368Z,0.80
2018-12-08T06:36:58.525Z,0.90
2018-12-08T06:37:59.666Z,1.17
2018-12-08T06:39:00.795Z,0.83
2018-12-08T06:40:03.275Z,1.17
2018-12-08T06:41:04.414Z,1.73
2018-12-08T06:42:05.527Z,1.17
2018-12-08T06:43:06.645Z,2.13
2018-12-08T06:44:07.762Z,2.40
2018-12-08T06:45:10.445Z,1.00
2018-12-08T06:46:11.782Z,0.80
2018-12-08T06:47:12.910Z,1.03
2018-12-08T06:48:14.029Z,1.10
2018-12-08T06:49:22.017Z,1.17
2018-12-08T06:50:23.154Z,1.67
2018-12-08T06:51:24.277Z,1.20
2018-12-08T06:52:25.385Z,1.37
2018-12-08T06:53:26.513Z,1.07
2018-12-08T06:54:27.782Z,1.10
2018-12-08T06:55:28.921Z,0.97
2018-12-08T06:56:30.030Z,1.83
2018-12-08T06:57:38.041Z,0.90
2018-12-08T06:58:39.185Z,0.50
2018-12-08T06:59:40.313Z,0.50
2018-12-08T07:00:41.435Z,0.60
2018-12-08T07:01:42.577Z,0.60
2018-12-08T07:02:43.697Z,0.80
2018-12-08T07:03:44.826Z,1.00
2018-12-08T07:04:45.951Z,0.90
2018-12-08T07:05:47.073Z,0.83
2018-12-08T07:06:48.234Z,1.43
2018-12-08T07:07:49.362Z,0.77
2018-12-08T07:08:50.489Z,0.50
2018-12-08T07:09:51.629Z,0.93
2018-12-08T07:10:52.757Z,0.90
2018-12-08T07:11:53.901Z,0.67
2018-12-08T07:12:55.019Z,0.60
2018-12-08T07:13:56.161Z,0.70
2018-12-08T07:14:57.292Z,1.00
2018-12-08T07:15:58.412Z,0.60
2018-12-08T07:16:59.529Z,0.87
2018-12-08T07:18:00.648Z,1.00
2018-12-08T07:19:01.773Z,1.00
2018-12-08T07:20:03.493Z,0.50
2018-12-08T07:21:04.625Z,0.50
2018-12-08T07:22:05.753Z,0.80
2018-12-08T07:23:06.909Z,1.07
2018-12-08T07:24:08.075Z,0.73
2018-12-08T07:25:09.219Z,1.30
2018-12-08T07:26:10.328Z,0.43
2018-12-08T07:27:11.454Z,0.80
2018-12-08T07:28:12.589Z,0.67
2018-12-08T07:29:13.709Z,0.40
2018-12-08T07:30:14.861Z,0.70
2018-12-08T07:31:15.993Z,1.03
2018-12-08T07:32:17.119Z,0.57
2018-12-08T07:33:18.221Z,0.50
2018-12-08T07:34:19.338Z,0.50
2018-12-08T07:35:20.465Z,0.43
2018-12-08T07:36:21.699Z,0.43
2018-12-08T07:37:22.801Z,0.50
2018-12-08T07:38:24.073Z,0.40
2018-12-08T07:39:25.220Z,0.40
2018-12-08T07:40:26.361Z,0.80
2018-12-08T07:41:27.538Z,0.90
2018-12-08T07:42:28.681Z,0.40
2018-12-08T07:43:29.789Z,0.80
2018-12-08T07:44:30.933Z,0.70
2018-12-08T07:45:32.057Z,0.40
2018-12-08T07:46:33.201Z,0.40
2018-12-08T07:47:34.359Z,0.60
2018-12-08T07:48:35.475Z,0.70
2018-12-08T07:49:36.618Z,0.20
2018-12-08T07:50:37.745Z,0.60
2018-12-08T07:51:38.866Z,0.70
2018-12-08T07:52:39.989Z,0.90
2018-12-08T07:53:41.127Z,0.80
2018-12-08T07:54:42.249Z,0.90
2018-12-08T07:55:43.378Z,0.50
2018-12-08T07:56:44.501Z,0.83
2018-12-08T07:57:45.618Z,0.67
2018-12-08T07:58:46.758Z,0.67
2018-12-08T07:59:47.881Z,0.60
2018-12-08T08:00:48.999Z,0.60
2018-12-08T08:01:50.149Z,0.90
2018-12-08T08:02:51.431Z,0.60
2018-12-08T08:03:52.546Z,0.40
2018-12-08T08:04:53.696Z,0.40
2018-12-08T08:05:54.828Z,0.67
2018-12-08T08:06:55.949Z,0.70
2018-12-08T08:07:57.074Z,0.87
2018-12-08T08:08:58.177Z,0.40
2018-12-08T08:09:59.281Z,0.40
2018-12-08T08:11:00.409Z,0.77
2018-12-08T08:12:01.574Z,0.50
2018-12-08T08:13:02.713Z,0.33
2018-12-08T08:14:03.837Z,0.60
2018-12-08T08:15:05.509Z,0.80
2018-12-08T08:16:06.619Z,0.37
2018-12-08T08:17:07.746Z,0.50
2018-12-08T08:18:08.859Z,0.73
2018-12-08T08:19:10.079Z,1.10
2018-12-08T08:20:11.369Z,0.60
2018-12-08T08:21:12.502Z,0.73
2018-12-08T08:22:13.625Z,1.10
2018-12-08T08:23:14.833Z,0.60
2018-12-08T08:24:15.957Z,0.40
2018-12-08T08:25:17.121Z,0.97
2018-12-08T08:26:18.245Z,1.07
2018-12-08T08:27:19.364Z,0.57
2018-12-08T08:28:20.493Z,0.50
2018-12-08T08:29:21.618Z,0.67
2018-12-08T08:30:22.773Z,0.40
2018-12-08T08:31:23.898Z,0.43
2018-12-08T08:32:25.082Z,0.40
2018-12-08T08:33:26.209Z,0.80
2018-12-08T08:34:27.345Z,0.50
2018-12-08T08:35:28.469Z,0.83
2018-12-08T08:36:29.603Z,0.70
2018-12-08T08:37:31.189Z,0.40
2018-12-08T08:38:32.365Z,0.40
2018-12-08T08:39:33.478Z,0.60
2018-12-08T08:40:34.612Z,1.17
2018-12-08T08:41:35.765Z,0.60
2018-12-08T08:42:37.000Z,0.40
2018-12-08T08:43:38.147Z,1.20
2018-12-08T08:44:39.277Z,0.53
2018-12-08T08:45:40.405Z,0.40
2018-12-08T08:46:41.537Z,0.70
2018-12-08T08:47:42.661Z,0.27
2018-12-08T08:48:43.773Z,0.80
2018-12-08T08:49:44.945Z,0.40
2018-12-08T08:50:46.093Z,0.40
2018-12-08T08:51:47.207Z,0.43
2018-12-08T08:52:48.318Z,0.53
2018-12-08T08:53:49.416Z,0.60
2018-12-08T08:54:50.555Z,0.60
2018-12-08T08:55:51.662Z,0.30
2018-12-08T08:56:52.797Z,0.40
2018-12-08T08:57:53.917Z,0.30
2018-12-08T08:58:55.051Z,0.50
2018-12-08T08:59:56.185Z,1.27
2018-12-08T09:00:57.313Z,0.30
2018-12-08T09:01:58.440Z,0.20
2018-12-08T09:02:59.565Z,0.43
2018-12-08T09:04:00.685Z,0.47
2018-12-08T09:05:01.873Z,0.20
2018-12-08T09:06:03.126Z,0.70
2018-12-08T09:07:04.287Z,0.40
2018-12-08T09:08:12.481Z,0.40
2018-12-08T09:09:13.624Z,0.33
2018-12-08T09:10:14.766Z,0.77
2018-12-08T09:11:15.921Z,0.70
2018-12-08T09:12:17.070Z,0.93
2018-12-08T09:13:18.225Z,0.20
2018-12-08T09:14:19.341Z,0.47
2018-12-08T09:15:27.418Z,1.03
2018-12-08T09:16:28.552Z,0.60
2018-12-08T09:17:29.678Z,0.40
2018-12-08T09:18:30.814Z,0.97
2018-12-08T09:19:31.937Z,0.47
2018-12-08T09:20:33.054Z,2.80
2018-12-08T09:21:34.190Z,2.27
2018-12-08T09:22:35.354Z,1.50
2018-12-08T09:23:36.487Z,2.00
2018-12-08T09:24:37.609Z,2.30
2018-12-08T09:25:38.724Z,3.80
2018-12-08T09:26:39.873Z,2.73
2018-12-08T09:27:41.041Z,2.30
2018-12-08T09:28:42.231Z,2.40
2018-12-08T09:29:43.361Z,5.67
2018-12-08T09:30:44.570Z,2.07
2018-12-08T09:31:45.677Z,2.77
2018-12-08T09:32:46.817Z,2.73
2018-12-08T09:33:47.963Z,2.80
2018-12-08T09:34:49.114Z,4.47
2018-12-08T09:35:50.352Z,4.57
2018-12-08T09:36:51.528Z,5.37
2018-12-08T09:37:52.745Z,4.97
2018-12-08T09:38:53.882Z,7.27
2018-12-08T09:39:55.019Z,4.90
2018-12-08T09:40:56.159Z,6.47
2018-12-08T09:41:57.273Z,7.43
2018-12-08T09:42:58.388Z,5.13
2018-12-08T09:43:59.497Z,6.00
2018-12-08T09:45:00.629Z,6.97
2018-12-08T09:46:01.742Z,6.90
2018-12-08T09:47:03.042Z,5.87
2018-12-08T09:48:04.172Z,5.37
2018-12-08T09:49:05.425Z,8.47
2018-12-08T09:50:06.834Z,8.17
2018-12-08T09:51:07.969Z,8.03
2018-12-08T09:52:09.107Z,8.37
2018-12-08T09:53:13.983Z,9.70
2018-12-08T09:54:15.109Z,11.00
2018-12-08T09:55:16.249Z,9.60
2018-12-08T09:56:17.582Z,9.90
2018-12-08T09:57:18.702Z,10.47
2018-12-08T09:58:19.822Z,8.77
2018-12-08T09:59:20.937Z,7.13
2018-12-08T10:00:22.061Z,11.33
2018-12-08T10:01:23.177Z,8.63
2018-12-08T10:02:24.339Z,11.40
2018-12-08T10:03:25.461Z,9.23
2018-12-08T10:04:26.703Z,9.13
2018-12-08T10:05:34.842Z,8.73
2018-12-08T10:06:36.058Z,9.73
2018-12-08T10:07:37.182Z,10.20
2018-12-08T10:08:38.337Z,6.27
2018-12-08T10:09:39.455Z,9.80
2018-12-08T10:10:40.583Z,8.87
2018-12-08T10:11:41.725Z,8.27
2018-12-08T10:12:42.845Z,10.00
2018-12-08T10:13:43.950Z,6.37
2018-12-08T10:14:45.068Z,8.43
2018-12-08T10:15:46.198Z,8.27
2018-12-08T10:16:47.335Z,7.23
2018-12-08T10:17:48.469Z,5.60
2018-12-08T10:18:49.605Z,6.00
2018-12-08T10:19:50.725Z,9.83
2018-12-08T10:20:51.858Z,6.70
2018-12-08T10:21:53.015Z,6.87
2018-12-08T10:22:54.129Z,6.63
2018-12-08T10:23:55.263Z,7.17
2018-12-08T10:24:56.385Z,8.90
2018-12-08T10:25:57.517Z,7.00
2018-12-08T10:26:58.641Z,8.40
2018-12-08T10:27:59.749Z,6.27
2018-12-08T10:29:00.861Z,6.80
2018-12-08T10:30:03.235Z,9.10
2018-12-08T10:31:04.386Z,6.47
2018-12-08T10:32:05.521Z,5.93
2018-12-08T10:33:06.797Z,7.70
2018-12-08T10:34:07.967Z,8.37
2018-12-08T10:35:10.241Z,5.63
2018-12-08T10:36:11.374Z,7.33
2018-12-08T10:37:12.666Z,6.77
2018-12-08T10:38:13.797Z,7.13
2018-12-08T10:39:14.965Z,6.87
2018-12-08T10:40:16.104Z,7.47
2018-12-08T10:41:17.233Z,6.03
2018-12-08T10:42:18.366Z,6.00
2018-12-08T10:43:19.489Z,4.77
2018-12-08T10:44:20.600Z,5.23
2018-12-08T10:45:21.761Z,5.87
2018-12-08T10:46:22.927Z,7.07
2018-12-08T10:47:24.047Z,5.10
2018-12-08T10:48:25.182Z,6.93
2018-12-08T10:49:26.333Z,4.90
2018-12-08T10:50:27.452Z,4.73
2018-12-08T10:51:28.599Z,5.53
2018-12-08T10:52:29.714Z,7.93
2018-12-08T10:53:30.847Z,6.73
2018-12-08T10:54:31.979Z,3.50
2018-12-08T10:55:33.117Z,5.17
2018-12-08T10:56:34.278Z,5.27
2018-12-08T10:57:35.408Z,6.53
2018-12-08T10:58:36.545Z,4.23
2018-12-08T10:59:37.682Z,6.67
2018-12-08T11:00:44.742Z,5.80
2018-12-08T11:01:51.785Z,3.40
2018-12-08T11:02:52.939Z,4.40
2018-12-08T11:04:00.902Z,3.60
2018-12-08T11:05:02.054Z,4.20
2018-12-08T11:06:03.217Z,3.57
2018-12-08T11:07:04.353Z,3.40
2018-12-08T11:08:05.517Z,4.50
2018-12-08T11:09:06.665Z,5.53
2018-12-08T11:10:07.841Z,4.27
2018-12-08T11:11:08.981Z,5.53
2018-12-08T11:12:10.098Z,3.77
2018-12-08T11:13:11.242Z,4.17
2018-12-08T11:14:12.489Z,4.13
2018-12-08T11:15:13.614Z,3.63
2018-12-08T11:16:14.769Z,4.33
2018-12-08T11:17:15.901Z,3.13
2018-12-08T11:18:17.009Z,2.83
2018-12-08T11:19:18.127Z,3.30
2018-12-08T11:20:19.249Z,3.20
2018-12-08T11:21:20.373Z,3.53
2018-12-08T11:22:21.534Z,2.47
2018-12-08T11:23:22.667Z,3.17
2018-12-08T11:24:23.806Z,3.80
2018-12-08T11:25:24.930Z,2.60
2018-12-08T11:26:26.068Z,2.67
2018-12-08T11:27:27.205Z,3.27
2018-12-08T11:28:28.329Z,3.10
2018-12-08T11:29:29.459Z,3.57
2018-12-08T11:30:31.403Z,2.53
2018-12-08T11:31:32.637Z,3.00
2018-12-08T11:32:33.762Z,2.70
2018-12-08T11:33:34.951Z,3.07
2018-12-08T11:34:36.081Z,2.13
2018-12-08T11:35:37.193Z,2.13
2018-12-08T11:36:38.318Z,3.43
2018-12-08T11:37:39.461Z,1.93
2018-12-08T11:38:40.605Z,2.07
2018-12-08T11:39:41.843Z,3.30
2018-12-08T11:40:42.991Z,2.33
2018-12-08T11:41:44.121Z,3.10
2018-12-08T11:42:45.266Z,2.20
2018-12-08T11:43:46.532Z,2.60
2018-12-08T11:44:47.710Z,1.73
2018-12-08T11:45:48.861Z,1.60
2018-12-08T11:46:50.169Z,2.47
2018-12-08T11:47:51.293Z,2.67
2018-12-08T11:48:52.469Z,2.20
2018-12-08T11:49:53.588Z,2.20
2018-12-08T11:50:54.702Z,2.17
2018-12-08T11:51:55.829Z,1.83
2018-12-08T11:52:56.945Z,1.80
2018-12-08T11:53:58.098Z,2.00
2018-12-08T11:54:59.258Z,2.00
2018-12-08T11:56:00.385Z,2.07
2018-12-08T11:57:01.505Z,1.63
2018-12-08T11:58:02.689Z,1.20
2018-12-08T11:59:03.834Z,2.93
2018-12-08T12:00:07.551Z,3.07
2018-12-08T12:01:08.695Z,2.13
2018-12-08T12:02:16.328Z,2.60
2018-12-08T12:03:13.011Z,0.97
2018-12-08T12:04:14.145Z,1.53
2018-12-08T12:05:15.293Z,1.40
2018-12-08T12:06:16.558Z,1.20
2018-12-08T12:07:17.697Z,2.50
2018-12-08T12:08:18.863Z,1.50
2018-12-08T12:09:19.981Z,2.63
2018-12-08T12:10:21.109Z,3.27
2018-12-08T12:11:22.232Z,1.57
2018-12-08T12:12:23.349Z,1.83
2018-12-08T12:13:24.602Z,1.43
2018-12-08T12:14:33.899Z,1.83
2018-12-08T12:15:35.017Z,0.90
2018-12-08T12:16:36.137Z,1.70
2018-12-08T12:17:37.281Z,1.90
2018-12-08T12:18:38.413Z,1.03
2018-12-08T12:19:39.570Z,1.50
2018-12-08T12:20:40.715Z,1.40
2018-12-08T12:21:41.846Z,2.40
2018-12-08T12:22:42.990Z,2.87
2018-12-08T12:23:44.154Z,0.90
2018-12-08T12:24:45.297Z,1.40
2018-12-08T12:25:46.560Z,1.20
2018-12-08T12:26:47.681Z,1.50
2018-12-08T12:27:48.977Z,2.10
2018-12-08T12:28:50.113Z,1.50
2018-12-08T12:29:51.273Z,3.67
2018-12-08T12:30:52.478Z,0.87
2018-12-08T12:31:53.601Z,2.47
2018-12-08T12:32:54.737Z,1.20
2018-12-08T12:33:55.853Z,2.10
2018-12-08T12:34:57.041Z,2.93
2018-12-08T12:35:58.233Z,2.33
2018-12-08T12:36:59.367Z,1.67
2018-12-08T12:38:00.488Z,2.50
2018-12-08T12:39:01.621Z,6.67
2018-12-08T12:40:03.205Z,1.40
2018-12-08T12:41:04.341Z,5.37
2018-12-08T12:42:05.486Z,5.13
2018-12-08T12:43:06.636Z,2.80
2018-12-08T12:44:07.794Z,4.87
2018-12-08T12:45:08.928Z,3.40
2018-12-08T12:46:10.061Z,2.63
2018-12-08T12:47:11.196Z,4.83
2018-12-08T12:48:12.319Z,2.30
2018-12-08T12:49:13.453Z,2.00
2018-12-08T12:50:14.581Z,3.27
2018-12-08T12:51:15.760Z,2.77
2018-12-08T12:52:16.902Z,3.07
2018-12-08T12:53:20.073Z,3.90
2018-12-08T12:54:21.196Z,2.77
2018-12-08T12:55:22.331Z,4.03
2018-12-08T12:56:23.459Z,1.37
2018-12-08T12:57:24.593Z,1.73
2018-12-08T12:58:25.715Z,1.43
2018-12-08T12:59:26.854Z,1.90
2018-12-08T13:00:27.974Z,1.67
2018-12-08T13:01:29.117Z,1.60
2018-12-08T13:02:30.250Z,1.83
2018-12-08T13:03:31.358Z,0.97
2018-12-08T13:04:32.489Z,1.07
2018-12-08T13:05:33.622Z,1.17
2018-12-08T13:06:34.767Z,0.83
2018-12-08T13:07:35.878Z,1.73
2018-12-08T13:08:37.005Z,0.70
2018-12-08T13:09:38.142Z,1.83
2018-12-08T13:10:39.265Z,0.83
2018-12-08T13:11:41.575Z,0.80
2018-12-08T13:12:42.833Z,0.87
2018-12-08T13:13:43.953Z,1.10
2018-12-08T13:14:45.065Z,1.83
2018-12-08T13:15:46.206Z,2.50
2018-12-08T13:16:47.343Z,2.10
2018-12-08T13:17:48.471Z,1.10
2018-12-08T13:18:49.621Z,1.77
2018-12-08T13:19:50.756Z,1.33
2018-12-08T13:20:51.901Z,1.13
2018-12-08T13:21:53.044Z,1.30
2018-12-08T13:22:54.170Z,2.47
2018-12-08T13:23:55.304Z,2.20
2018-12-08T13:25:08.605Z,2.17
2018-12-08T13:26:09.721Z,4.80
2018-12-08T13:27:10.854Z,4.20
2018-12-08T13:28:11.973Z,3.17
2018-12-08T13:29:13.110Z,4.10
2018-12-08T13:30:14.253Z,4.83
2018-12-08T13:31:15.361Z,4.77
2018-12-08T13:32:16.485Z,4.20
2018-12-08T13:33:17.608Z,5.57
2018-12-08T13:34:24.717Z,5.63
2018-12-08T13:35:35.918Z,4.23
2018-12-08T13:36:37.046Z,4.43
2018-12-08T13:37:38.162Z,4.00
2018-12-08T13:38:39.290Z,3.40